createdAt,value
2023-02-03T00:01:23.794Z,11.01
2023-02-03T00:03:51.972Z,10.95
2023-02-03T00:06:20.300Z,10.96
2023-02-03T00:08:48.717Z,10.97
2023-02-03T00:11:16.886Z,11.02
2023-02-03T00:13:45.089Z,11.04
2023-02-03T00:16:13.356Z,11.03
2023-02-03T00:18:42.948Z,11.05
2023-02-03T00:21:11.098Z,11.05
2023-02-03T00:23:39.561Z,11.08
2023-02-03T00:26:11.236Z,11.09
2023-02-03T00:28:39.402Z,11.10
2023-02-03T00:31:07.754Z,11.09
2023-02-03T00:33:36.387Z,11.10
2023-02-03T00:36:09.056Z,11.10
2023-02-03T00:38:37.122Z,11.09
2023-02-03T00:41:05.357Z,11.11
2023-02-03T00:43:33.875Z,11.12
2023-02-03T00:46:02.170Z,11.15
2023-02-03T00:48:31.138Z,11.13
2023-02-03T00:50:59.343Z,11.12
2023-02-03T00:53:28.806Z,11.13
2023-02-03T00:55:57.058Z,11.13
2023-02-03T00:58:25.175Z,11.12
2023-02-03T01:00:53.282Z,11.12
2023-02-03T01:03:21.492Z,11.13
2023-02-03T01:05:49.634Z,11.13
2023-02-03T01:08:25.368Z,11.14
2023-02-03T01:10:54.965Z,11.15
2023-02-03T01:13:23.113Z,11.16
2023-02-03T01:15:51.304Z,11.14
2023-02-03T01:18:21.295Z,11.12
2023-02-03T01:20:49.533Z,11.12
2023-02-03T01:23:17.556Z,11.08
2023-02-03T01:25:45.707Z,11.10
2023-02-03T01:28:15.243Z,11.07
2023-02-03T01:30:43.472Z,11.05
2023-02-03T01:33:11.759Z,11.03
2023-02-03T01:35:40.075Z,11.04
2023-02-03T01:38:08.300Z,11.02
2023-02-03T01:40:43.194Z,11.04
2023-02-03T01:43:11.671Z,11.04
2023-02-03T01:45:41.461Z,11.02
2023-02-03T01:48:10.394Z,11.00
2023-02-03T01:50:39.205Z,11.01
2023-02-03T01:53:12.021Z,10.97
2023-02-03T01:55:44.307Z,10.98
2023-02-03T01:58:17.216Z,10.97
2023-02-03T02:00:47.616Z,10.93
2023-02-03T02:03:16.686Z,10.94
2023-02-03T02:05:49.544Z,10.92
2023-02-03T02:08:19.831Z,10.95
2023-02-03T02:10:48.472Z,10.93
2023-02-03T02:13:18.955Z,10.95
2023-02-03T02:15:56.145Z,10.94
2023-02-03T02:18:42.909Z,10.97
2023-02-03T02:21:43.080Z,10.96
2023-02-03T02:24:39.642Z,10.95
2023-02-03T02:27:18.031Z,10.93
2023-02-03T02:30:19.726Z,10.92
2023-02-03T02:33:03.740Z,10.94
2023-02-03T02:35:45.925Z,10.91
2023-02-03T02:38:22.027Z,10.91
2023-02-03T02:40:55.509Z,10.92
2023-02-03T02:43:29.667Z,10.94
2023-02-03T02:46:03.101Z,10.93
2023-02-03T02:48:37.913Z,10.91
2023-02-03T02:51:09.879Z,10.91
2023-02-03T02:53:43.023Z,10.92
2023-02-03T02:56:15.524Z,10.91
2023-02-03T02:58:48.700Z,10.92
2023-02-03T03:01:18.132Z,10.94
2023-02-03T03:03:48.240Z,10.96
2023-02-03T03:06:22.326Z,10.96
2023-02-03T03:08:55.668Z,11.00
2023-02-03T03:11:25.992Z,11.02
2023-02-03T03:13:57.132Z,11.02
2023-02-03T03:16:27.205Z,11.03
2023-02-03T03:19:01.189Z,11.02
2023-02-03T03:21:33.672Z,11.06
2023-02-03T03:24:07.135Z,11.06
2023-02-03T03:26:41.245Z,11.07
2023-02-03T03:29:15.697Z,11.07
2023-02-03T03:31:44.524Z,11.10
2023-02-03T03:34:15.294Z,11.10
2023-02-03T03:36:49.106Z,11.10
2023-02-03T03:39:27.234Z,11.06
2023-02-03T03:42:03.441Z,11.10
2023-02-03T03:44:39.418Z,11.11
2023-02-03T03:47:15.773Z,11.10
2023-02-03T03:49:49.007Z,11.11
2023-02-03T03:52:22.281Z,11.15
2023-02-03T03:54:52.633Z,11.16
2023-02-03T03:57:26.561Z,11.17
2023-02-03T03:59:56.184Z,11.18
2023-02-03T04:02:25.328Z,11.20
2023-02-03T04:04:56.080Z,11.23
2023-02-03T04:07:24.145Z,11.23
2023-02-03T04:09:52.289Z,11.23
2023-02-03T04:12:24.806Z,11.22
2023-02-03T04:14:52.953Z,11.07
2023-02-03T04:17:21.005Z,11.03
2023-02-03T04:19:49.182Z,11.01
2023-02-03T04:22:18.856Z,11.04
2023-02-03T04:24:46.947Z,11.01
2023-02-03T04:27:15.175Z,11.05
2023-02-03T04:29:43.339Z,11.06
2023-02-03T04:32:11.547Z,11.07
2023-02-03T04:34:39.645Z,11.07
2023-02-03T04:37:07.725Z,11.04
2023-02-03T04:39:37.188Z,11.02
2023-02-03T04:42:05.620Z,10.99
2023-02-03T04:44:33.692Z,10.97
2023-02-03T04:47:02.029Z,10.97
2023-02-03T04:49:30.222Z,10.99
2023-02-03T04:51:58.354Z,10.95
2023-02-03T04:54:26.575Z,10.96
2023-02-03T04:56:56.156Z,10.98
2023-02-03T04:59:24.377Z,11.05
2023-02-03T05:01:52.601Z,11.00
2023-02-03T05:04:20.727Z,11.03
2023-02-03T05:06:49.243Z,11.06
2023-02-03T05:09:17.557Z,11.07
2023-02-03T05:11:45.686Z,11.08
2023-02-03T05:14:15.215Z,11.05
2023-02-03T05:16:43.506Z,11.06
2023-02-03T05:19:12.017Z,11.04
2023-02-03T05:21:40.368Z,11.04
2023-02-03T05:24:09.335Z,11.07
2023-02-03T05:26:37.759Z,11.02
2023-02-03T05:29:06.007Z,11.03
2023-02-03T05:31:35.567Z,11.03
2023-02-03T05:34:03.767Z,11.04
2023-02-03T05:36:31.835Z,11.02
2023-02-03T05:39:00.059Z,11.05
2023-02-03T05:41:45.392Z,11.03
2023-02-03T05:44:13.554Z,11.03
2023-02-03T05:46:42.998Z,11.02
2023-02-03T05:49:11.195Z,11.04
2023-02-03T05:51:39.931Z,11.03
2023-02-03T05:54:08.848Z,11.04
2023-02-03T05:56:37.244Z,11.00
2023-02-03T05:59:06.447Z,11.01
2023-02-03T06:01:35.665Z,11.02
2023-02-03T06:04:05.888Z,11.00
2023-02-03T06:06:34.505Z,11.00
2023-02-03T06:09:03.143Z,10.98
2023-02-03T06:11:31.993Z,11.04
2023-02-03T06:14:00.710Z,11.06
2023-02-03T06:16:30.324Z,10.99
2023-02-03T06:19:01.049Z,11.02
2023-02-03T06:21:30.712Z,11.07
2023-02-03T06:23:59.035Z,11.06
2023-02-03T06:26:27.120Z,11.09
2023-02-03T06:28:55.228Z,11.08
2023-02-03T06:31:23.601Z,11.06
2023-02-03T06:33:51.823Z,11.06
2023-02-03T06:36:20.079Z,11.07
2023-02-03T06:38:49.608Z,11.09
2023-02-03T06:41:17.830Z,11.11
2023-02-03T06:43:45.908Z,11.09
2023-02-03T06:46:14.073Z,11.12
2023-02-03T06:48:42.209Z,11.12
2023-02-03T06:51:10.358Z,11.11
2023-02-03T06:53:38.461Z,11.13
2023-02-03T06:56:08.373Z,11.11
2023-02-03T06:58:36.508Z,11.11
2023-02-03T07:01:04.834Z,11.10
2023-02-03T07:03:33.050Z,11.05
2023-02-03T07:06:01.144Z,11.02
2023-02-03T07:08:29.344Z,10.95
2023-02-03T07:10:57.687Z,10.91
2023-02-03T07:13:27.256Z,10.88
2023-02-03T07:15:55.432Z,10.80
2023-02-03T07:18:47.377Z,10.79
2023-02-03T07:21:13.508Z,10.75
2023-02-03T07:23:41.792Z,10.72
2023-02-03T07:26:11.763Z,10.69
2023-02-03T07:28:41.485Z,10.64
2023-02-03T07:31:10.781Z,10.64
2023-02-03T07:33:39.445Z,10.63
2023-02-03T07:36:09.151Z,10.62
2023-02-03T07:38:38.174Z,10.60
2023-02-03T07:41:06.710Z,10.61
2023-02-03T07:43:34.953Z,10.58
2023-02-03T07:46:04.932Z,10.57
2023-02-03T07:48:33.097Z,10.57
2023-02-03T07:51:01.350Z,10.57
2023-02-03T07:53:29.649Z,10.56
2023-02-03T07:56:01.754Z,10.54
2023-02-03T07:58:29.955Z,10.55
2023-02-03T08:00:59.052Z,10.52
2023-02-03T08:03:28.579Z,10.49
2023-02-03T08:05:56.636Z,10.52
2023-02-03T08:08:24.951Z,10.53
2023-02-03T08:10:53.122Z,10.56
2023-02-03T08:13:21.279Z,10.55
2023-02-03T08:15:49.784Z,10.57
2023-02-03T08:18:17.941Z,10.57
2023-02-03T08:20:48.214Z,10.60
2023-02-03T08:23:16.484Z,10.63
2023-02-03T08:25:44.911Z,10.66
2023-02-03T08:28:13.160Z,10.64
2023-02-03T08:30:41.306Z,10.68
2023-02-03T08:33:09.549Z,10.72
2023-02-03T08:35:37.811Z,10.75
2023-02-03T08:38:07.786Z,10.78
2023-02-03T08:40:36.041Z,10.81
2023-02-03T08:43:04.295Z,10.81
2023-02-03T08:45:32.639Z,10.83
2023-02-03T08:48:00.709Z,10.85
2023-02-03T08:50:29.405Z,10.90
2023-02-03T08:52:57.668Z,10.87
2023-02-03T08:55:27.224Z,10.86
2023-02-03T08:57:55.437Z,10.85
2023-02-03T09:00:24.120Z,10.83
2023-02-03T09:02:52.290Z,10.84
2023-02-03T09:05:20.497Z,10.89
2023-02-03T09:07:48.782Z,10.90
2023-02-03T09:10:17.271Z,11.10
2023-02-03T09:12:46.866Z,11.01
2023-02-03T09:15:15.188Z,10.98
2023-02-03T09:17:43.341Z,11.03
2023-02-03T09:20:15.230Z,11.05
2023-02-03T09:22:43.484Z,11.05
2023-02-03T09:25:11.991Z,11.08
2023-02-03T09:27:40.283Z,11.13
2023-02-03T09:30:10.986Z,11.17
2023-02-03T09:32:39.188Z,11.25
2023-02-03T09:35:08.127Z,11.30
2023-02-03T09:37:36.350Z,11.37
2023-02-03T09:40:04.941Z,11.37
2023-02-03T09:42:57.523Z,11.37
2023-02-03T09:45:29.303Z,11.39
2023-02-03T09:48:05.503Z,11.38
2023-02-03T09:50:37.431Z,11.44
2023-02-03T09:53:12.973Z,11.43
2023-02-03T09:55:43.656Z,11.44
2023-02-03T09:58:14.230Z,11.42
2023-02-03T10:00:45.723Z,11.45
2023-02-03T10:03:26.701Z,11.47
2023-02-03T10:06:04.095Z,11.51
2023-02-03T10:08:54.615Z,11.52
2023-02-03T10:11:37.389Z,11.53
2023-02-03T10:14:20.853Z,11.62
2023-02-03T10:17:17.835Z,11.73
2023-02-03T10:19:48.970Z,11.84
2023-02-03T10:22:22.299Z,11.92
2023-02-03T10:24:57.187Z,11.96
2023-02-03T10:27:26.628Z,12.07
2023-02-03T10:30:00.624Z,12.17
2023-02-03T10:32:30.515Z,12.23
2023-02-03T10:34:58.928Z,12.26
2023-02-03T10:37:31.440Z,12.31
2023-02-03T10:40:01.368Z,12.36
2023-02-03T10:42:51.654Z,12.44
2023-02-03T10:45:21.928Z,12.53
2023-02-03T10:47:54.316Z,12.57
2023-02-03T10:50:24.706Z,12.62
2023-02-03T10:52:52.869Z,12.72
2023-02-03T10:55:32.905Z,12.74
2023-02-03T10:58:11.825Z,12.78
2023-02-03T11:00:40.781Z,12.82
2023-02-03T11:03:23.130Z,12.83
2023-02-03T11:06:06.232Z,12.89
2023-02-03T11:08:35.288Z,12.92
2023-02-03T11:11:05.455Z,12.95
2023-02-03T11:13:33.833Z,12.97
2023-02-03T11:16:03.909Z,13.03
2023-02-03T11:18:43.480Z,13.04
2023-02-03T11:21:14.606Z,13.09
2023-02-03T11:24:04.962Z,13.14
2023-02-03T11:26:37.210Z,13.16
2023-02-03T11:29:08.421Z,13.20
2023-02-03T11:31:38.118Z,13.22
2023-02-03T11:34:17.080Z,13.27
2023-02-03T11:36:45.278Z,13.33
2023-02-03T11:39:27.100Z,13.32
2023-02-03T11:41:56.062Z,13.34
2023-02-03T11:44:29.593Z,13.34
2023-02-03T11:47:02.216Z,13.27
2023-02-03T11:50:04.594Z,13.16
2023-02-03T11:52:47.108Z,13.14
2023-02-03T11:55:32.725Z,13.02
2023-02-03T11:58:24.393Z,12.94
2023-02-03T12:00:58.903Z,12.90
2023-02-03T12:04:00.055Z,12.87
2023-02-03T12:06:47.750Z,12.86
2023-02-03T12:09:26.917Z,12.79
2023-02-03T12:12:22.466Z,12.74
2023-02-03T12:15:01.870Z,12.85
2023-02-03T12:17:56.210Z,13.08
2023-02-03T12:20:44.972Z,13.21
2023-02-03T12:23:30.618Z,13.37
2023-02-03T12:26:14.676Z,13.48
2023-02-03T12:28:53.380Z,13.57
2023-02-03T12:31:29.488Z,13.62
2023-02-03T12:34:04.939Z,13.67
2023-02-03T12:36:39.959Z,13.66
2023-02-03T12:39:17.020Z,13.74
2023-02-03T12:41:51.633Z,13.79
2023-02-03T12:44:23.527Z,13.80
2023-02-03T12:46:58.381Z,13.73
2023-02-03T12:49:34.767Z,13.71
2023-02-03T12:52:11.514Z,13.79
2023-02-03T12:54:47.142Z,13.85
2023-02-03T12:57:24.931Z,13.96
2023-02-03T13:00:05.972Z,13.99
2023-02-03T13:02:43.844Z,14.02
2023-02-03T13:05:23.402Z,14.05
2023-02-03T13:08:00.139Z,14.06
2023-02-03T13:10:38.125Z,14.15
2023-02-03T13:13:09.390Z,14.22
2023-02-03T13:15:41.845Z,14.28
2023-02-03T13:18:20.107Z,14.31
2023-02-03T13:20:48.243Z,14.33
2023-02-03T13:23:17.327Z,14.30
2023-02-03T13:25:58.915Z,14.21
2023-02-03T13:28:42.228Z,14.11
2023-02-03T13:31:23.180Z,14.03
2023-02-03T13:34:12.990Z,14.01
2023-02-03T13:37:18.279Z,14.06
2023-02-03T13:40:01.833Z,14.11
2023-02-03T13:42:33.527Z,14.09
2023-02-03T13:45:09.586Z,13.99
2023-02-03T13:47:38.023Z,13.84
2023-02-03T13:50:10.355Z,13.82
2023-02-03T13:52:45.728Z,13.81
2023-02-03T13:55:30.202Z,13.68
2023-02-03T13:58:00.487Z,13.49
2023-02-03T14:01:20.460Z,13.36
2023-02-03T14:03:49.198Z,13.29
2023-02-03T14:07:00.074Z,13.30
2023-02-03T14:09:42.425Z,13.40
2023-02-03T14:12:22.655Z,13.42
2023-02-03T14:15:14.329Z,13.42
2023-02-03T14:18:01.624Z,13.45
2023-02-03T14:20:48.121Z,13.44
2023-02-03T14:23:22.743Z,13.44
2023-02-03T14:25:54.033Z,13.43
2023-02-03T14:28:25.137Z,13.43
2023-02-03T14:31:10.974Z,13.43
2023-02-03T14:34:09.548Z,13.39
2023-02-03T14:36:47.682Z,13.38
2023-02-03T14:39:56.424Z,13.32
2023-02-03T14:42:45.989Z,13.26
2023-02-03T14:45:32.925Z,13.21
2023-02-03T14:48:16.421Z,13.21
2023-02-03T14:50:58.841Z,13.29
2023-02-03T14:53:41.967Z,13.35
2023-02-03T14:56:20.037Z,13.40
2023-02-03T14:58:54.616Z,13.38
2023-02-03T15:01:30.280Z,13.38
2023-02-03T15:04:24.604Z,13.32
2023-02-03T15:06:54.636Z,13.35
2023-02-03T15:09:28.713Z,13.34
2023-02-03T15:11:56.927Z,13.36
2023-02-03T15:14:27.185Z,13.41
2023-02-03T15:16:58.009Z,13.42
2023-02-03T15:19:30.378Z,13.40
2023-02-03T15:21:58.550Z,13.39
2023-02-03T15:24:26.920Z,13.38
2023-02-03T15:26:57.608Z,13.37
2023-02-03T15:29:31.323Z,13.35
2023-02-03T15:32:11.044Z,13.30
2023-02-03T15:34:45.913Z,13.27
2023-02-03T15:37:19.711Z,13.27
2023-02-03T15:39:56.586Z,13.23
2023-02-03T15:42:31.162Z,13.22
2023-02-03T15:45:07.675Z,13.20
2023-02-03T15:47:40.060Z,13.15
2023-02-03T15:50:26.686Z,13.12
2023-02-03T15:53:01.324Z,13.12
2023-02-03T15:55:37.145Z,13.10
2023-02-03T15:58:06.623Z,13.09
2023-02-03T16:00:44.795Z,13.07
2023-02-03T16:03:20.095Z,13.03
2023-02-03T16:05:54.803Z,13.04
2023-02-03T16:08:35.871Z,13.00
2023-02-03T16:11:04.090Z,12.98
2023-02-03T16:13:35.960Z,12.96
2023-02-03T16:16:08.583Z,12.95
2023-02-03T16:18:37.848Z,12.97
2023-02-03T16:21:07.731Z,12.97
2023-02-03T16:23:35.988Z,12.94
2023-02-03T16:26:06.330Z,12.95
2023-02-03T16:28:51.909Z,12.91
2023-02-03T16:31:39.797Z,12.90
2023-02-03T16:34:32.301Z,12.88
2023-02-03T16:37:19.595Z,12.86
2023-02-03T16:40:05.582Z,12.80
2023-02-03T16:42:57.370Z,12.79
2023-02-03T16:45:42.954Z,12.72
2023-02-03T16:48:29.550Z,12.75
2023-02-03T16:50:59.603Z,12.73
2023-02-03T16:53:31.412Z,12.65
2023-02-03T16:56:00.205Z,12.62
2023-02-03T16:58:30.666Z,12.63
2023-02-03T17:01:00.403Z,12.61
2023-02-03T17:03:29.638Z,12.60
2023-02-03T17:05:58.235Z,12.59
2023-02-03T17:08:27.201Z,12.57
2023-02-03T17:10:56.406Z,12.58
2023-02-03T17:13:24.515Z,12.61
2023-02-03T17:15:53.818Z,12.60
2023-02-03T17:18:22.093Z,12.59
2023-02-03T17:20:49.962Z,12.48
2023-02-03T17:23:17.957Z,12.44
2023-02-03T17:25:45.923Z,12.40
2023-02-03T17:28:15.316Z,12.27
2023-02-03T17:30:43.485Z,12.21
2023-02-03T17:33:13.183Z,12.15
2023-02-03T17:35:41.828Z,12.08
2023-02-03T17:38:10.096Z,12.03
2023-02-03T17:54:29.543Z,11.85
2023-02-03T17:56:57.414Z,11.84
2023-02-03T17:59:26.653Z,11.81
2023-02-03T18:01:54.737Z,11.80
2023-02-03T18:04:22.645Z,11.77
2023-02-03T18:06:50.421Z,11.75
2023-02-03T18:09:18.313Z,11.71
2023-02-03T18:11:46.700Z,11.68
2023-02-03T18:14:15.815Z,11.67
2023-02-03T18:16:45.223Z,11.65
2023-02-03T18:19:14.293Z,11.61
2023-02-03T18:21:43.248Z,11.60
2023-02-03T18:24:11.361Z,11.55
2023-02-03T18:26:46.172Z,11.52
2023-02-03T18:29:14.200Z,11.50
2023-02-03T18:31:42.137Z,11.46
2023-02-03T18:34:11.534Z,11.47
2023-02-03T18:39:11.136Z,11.50
2023-02-03T18:41:40.654Z,11.52
2023-02-03T18:44:08.618Z,11.55
2023-02-03T18:46:36.469Z,11.54
2023-02-03T18:49:04.456Z,11.56
2023-02-03T18:51:33.818Z,11.58
2023-02-03T18:54:01.847Z,11.60
2023-02-03T18:56:35.170Z,11.61
2023-02-03T18:59:05.904Z,11.63
2023-02-03T19:01:34.054Z,11.65
2023-02-03T19:04:03.263Z,11.66
2023-02-03T19:06:31.603Z,11.67
2023-02-03T19:09:01.301Z,11.68
2023-02-03T19:11:29.519Z,11.70
2023-02-03T19:13:57.439Z,11.70
2023-02-03T19:16:25.352Z,11.69
2023-02-03T19:18:53.685Z,11.68
2023-02-03T19:21:21.566Z,11.66
2023-02-03T19:23:49.477Z,11.62
2023-02-03T19:26:18.720Z,11.60
2023-02-03T19:28:46.595Z,11.59
2023-02-03T19:31:15.831Z,11.58
2023-02-03T19:33:43.986Z,11.58
2023-02-03T19:36:12.622Z,11.60
2023-02-03T19:38:40.496Z,11.62
2023-02-03T19:41:09.624Z,11.66
2023-02-03T19:43:40.157Z,11.67
2023-02-03T19:46:08.232Z,11.67
2023-02-03T19:48:36.311Z,11.69
2023-02-03T19:51:04.286Z,11.72
2023-02-03T19:53:32.224Z,11.73
2023-02-03T19:56:00.165Z,11.75
2023-02-03T19:58:28.084Z,11.77
2023-02-03T20:00:57.824Z,11.77
2023-02-03T20:03:25.819Z,11.77
2023-02-03T20:05:54.401Z,11.77
2023-02-03T20:08:22.365Z,11.77
2023-02-03T20:10:50.334Z,11.76
2023-02-03T20:13:18.267Z,11.77
2023-02-03T20:15:47.686Z,11.76
2023-02-03T20:18:17.205Z,11.75
2023-02-03T20:20:45.233Z,11.76
2023-02-03T20:23:13.057Z,11.76
2023-02-03T20:25:40.980Z,11.77
2023-02-03T20:28:08.890Z,11.78
2023-02-03T20:30:37.027Z,11.79
2023-02-03T20:33:06.324Z,11.81
2023-02-03T20:35:35.705Z,11.81
2023-02-03T20:38:03.566Z,11.82
2023-02-03T20:40:31.839Z,11.84
2023-02-03T20:43:06.063Z,11.83
2023-02-03T20:45:34.734Z,11.86
2023-02-03T20:48:02.567Z,11.85
2023-02-03T20:50:41.452Z,11.86
2023-02-03T20:53:13.673Z,11.85
2023-02-03T20:55:41.628Z,11.85
2023-02-03T20:58:16.437Z,11.86
2023-02-03T21:00:44.485Z,11.85
2023-02-03T21:03:30.144Z,11.80
2023-02-03T21:05:58.411Z,11.81
2023-02-03T21:08:28.081Z,11.85
2023-02-03T21:10:56.085Z,11.85
2023-02-03T21:13:25.133Z,11.84
2023-02-03T21:15:54.978Z,11.85
2023-02-03T21:18:28.984Z,11.88
2023-02-03T21:20:57.079Z,11.83
2023-02-03T21:23:26.323Z,11.87
2023-02-03T21:25:55.820Z,11.86
2023-02-03T21:28:25.814Z,11.85
2023-02-03T21:30:54.164Z,11.86
2023-02-03T21:33:41.922Z,11.81
2023-02-03T21:36:15.520Z,11.81
2023-02-03T21:38:43.492Z,11.85
2023-02-03T21:41:17.537Z,11.83
2023-02-03T21:43:47.111Z,11.81
2023-02-03T21:46:18.591Z,11.80
2023-02-03T21:48:48.404Z,11.81
2023-02-03T21:51:16.950Z,11.81
2023-02-03T21:53:48.261Z,11.77
2023-02-03T21:56:21.759Z,11.74
2023-02-03T21:58:50.819Z,11.69
2023-02-03T22:01:20.155Z,11.69
2023-02-03T22:03:48.834Z,11.73
2023-02-03T22:06:18.351Z,11.68
2023-02-03T22:08:46.990Z,11.71
2023-02-03T22:11:15.393Z,11.72
2023-02-03T22:13:44.555Z,11.74
2023-02-03T22:16:14.268Z,11.72
2023-02-03T22:18:42.501Z,11.68
2023-02-03T22:21:10.385Z,11.67
2023-02-03T22:23:38.299Z,11.68
2023-02-03T22:26:06.732Z,11.59
2023-02-03T22:28:34.945Z,11.61
2023-02-03T22:31:05.303Z,11.62
2023-02-03T22:33:33.322Z,11.64
2023-02-03T22:36:01.204Z,11.58
2023-02-03T22:38:29.261Z,11.59
2023-02-03T22:40:57.174Z,11.59
2023-02-03T22:43:25.398Z,11.59
2023-02-03T22:45:53.481Z,11.59
2023-02-03T22:48:22.855Z,11.54
2023-02-03T22:50:50.729Z,11.52
2023-02-03T22:53:18.672Z,11.49
2023-02-03T22:55:46.528Z,11.47
2023-02-03T22:58:14.498Z,11.46
2023-02-03T23:00:42.576Z,11.43
2023-02-03T23:03:10.728Z,11.42
2023-02-03T23:05:40.146Z,11.39
2023-02-03T23:08:08.362Z,11.38
2023-02-03T23:10:36.361Z,11.37
2023-02-03T23:13:04.321Z,11.40
2023-02-03T23:15:32.270Z,11.39
2023-02-03T23:18:00.429Z,11.41
2023-02-03T23:20:28.509Z,11.41
2023-02-03T23:22:57.977Z,11.40
2023-02-03T23:25:25.903Z,11.32
2023-02-03T23:27:53.814Z,11.34
2023-02-03T23:30:21.765Z,11.37
2023-02-03T23:32:49.721Z,11.36
2023-02-03T23:35:35.380Z,11.31
2023-02-03T23:38:04.598Z,11.26
2023-02-03T23:40:32.722Z,11.31
2023-02-03T23:43:00.857Z,11.33
2023-02-03T23:45:28.693Z,11.32
2023-02-03T23:47:56.518Z,11.28
2023-02-03T23:50:24.539Z,11.32
2023-02-03T23:52:52.429Z,11.30
2023-02-03T23:55:22.041Z,11.26
2023-02-03T23:57:50.311Z,11.30
